Time,TemperatureF,DewpointF,PressureIn,WindDirection,WindDirectionDegrees,WindSpeedMPH,WindSpeedGustMPH,Humidity,HourlyPrecipIn,Conditions,Clouds,dailyrainin,SoftwareType,DateUTC
2013-03-19 00:05:00,48.7,48.2,29.73,ENE,67,0.0,-999.0,98,-99.99,,,0.00,Acu-Link.com,2013-03-19 04:05:00,
2013-03-19 00:20:00,48.2,47.7,29.74,ENE,67,0.0,-999.0,98,-99.99,,,0.00,Acu-Link.com,2013-03-19 04:20:00,
2013-03-19 00:35:00,47.7,47.2,29.74,NE,45,0.0,-999.0,98,-99.99,,,0.00,Acu-Link.com,2013-03-19 04:35:00,
2013-03-19 00:50:00,47.5,47.0,29.75,NNE,22,0.0,-999.0,98,-99.99,,,0.00,Acu-Link.com,2013-03-19 04:50:00,
2013-03-19 01:06:00,47.5,47.0,29.74,NE,45,0.0,-999.0,98,-99.99,,,0.00,Acu-Link.com,2013-03-19 05:06:00,
2013-03-19 01:51:00,47.8,47.3,29.73,NE,45,0.0,-999.0,98,-99.99,,,0.00,Acu-Link.com,2013-03-19 05:51:00,
2013-03-19 02:07:00,47.8,47.3,29.73,NE,45,0.0,-999.0,98,-99.99,,,0.00,Acu-Link.com,2013-03-19 06:07:00,
2013-03-19 02:22:00,47.8,47.3,29.73,ESE,112,1.1,-999.0,98,-99.99,,,0.00,Acu-Link.com,2013-03-19 06:22:00,
2013-03-19 02:37:00,48.0,47.5,29.74,NE,45,0.0,-999.0,98,-99.99,,,0.00,Acu-Link.com,2013-03-19 06:37:00,
2013-03-19 02:52:00,48.0,47.5,29.73,ENE,67,0.0,-999.0,98,-99.99,,,0.00,Acu-Link.com,2013-03-19 06:52:00,
2013-03-19 03:07:00,48.0,47.5,29.73,NE,45,0.0,-999.0,98,-99.99,,,0.00,Acu-Link.com,2013-03-19 07:07:00,
2013-03-19 03:23:00,47.8,47.3,29.73,NE,45,0.0,-999.0,98,-99.99,,,0.00,Acu-Link.com,2013-03-19 07:23:00,
2013-03-19 03:38:00,47.7,47.2,29.72,NE,45,0.0,-999.0,98,-99.99,,,0.00,Acu-Link.com,2013-03-19 07:38:00,
2013-03-19 03:53:00,47.5,47.0,29.71,ENE,67,0.0,-999.0,98,-99.99,,,0.00,Acu-Link.com,2013-03-19 07:53:00,
2013-03-19 04:08:00,47.1,46.6,29.72,NE,45,0.0,-999.0,98,-99.99,,,0.00,Acu-Link.com,2013-03-19 08:08:00,
2013-03-19 04:24:00,46.9,46.4,29.72,NE,45,1.7,-999.0,98,-99.99,,,0.00,Acu-Link.com,2013-03-19 08:24:00,
2013-03-19 04:39:00,47.1,46.6,29.73,ENE,67,0.0,-999.0,98,-99.99,,,0.00,Acu-Link.com,2013-03-19 08:39:00,
2013-03-19 04:54:00,47.7,47.2,29.74,SSE,157,0.0,-999.0,98,-99.99,,,0.00,Acu-Link.com,2013-03-19 08:54:00,
2013-03-19 05:09:00,48.9,48.4,29.74,SW,225,1.1,-999.0,98,-99.99,,,0.00,Acu-Link.com,2013-03-19 09:09:00,
2013-03-19 05:24:00,50.9,50.4,29.74,SW,225,1.7,-999.0,98,-99.99,,,0.00,Acu-Link.com,2013-03-19 09:24:00,
2013-03-19 05:39:00,51.8,51.3,29.73,SW,225,2.2,-999.0,98,-99.99,,,0.00,Acu-Link.com,2013-03-19 09:39:00,
2013-03-19 05:55:00,52.0,51.5,29.74,SW,225,1.7,-999.0,98,-99.99,,,0.00,Acu-Link.com,2013-03-19 09:55:00,
2013-03-19 06:10:00,51.8,51.3,29.75,SW,225,0.0,-999.0,98,-99.99,,,0.00,Acu-Link.com,2013-03-19 10:10:00,
2013-03-19 06:25:00,51.4,50.9,29.76,SSW,202,1.7,-999.0,98,-99.99,,,0.00,Acu-Link.com,2013-03-19 10:25:00,
2013-03-19 06:40:00,50.7,50.2,29.77,SW,225,1.7,-999.0,98,-99.99,,,0.00,Acu-Link.com,2013-03-19 10:40:00,
2013-03-19 06:56:00,49.6,49.1,29.79,SW,225,1.1,-999.0,98,-99.99,,,0.00,Acu-Link.com,2013-03-19 10:56:00,
2013-03-19 07:12:00,48.6,48.1,29.79,East,90,3.7,-999.0,98,-99.99,,,0.00,Acu-Link.com,2013-03-19 11:12:00,
2013-03-19 07:27:00,47.5,47.0,29.80,SE,135,2.2,-999.0,98,-99.99,,,0.00,Acu-Link.com,2013-03-19 11:27:00,
2013-03-19 07:42:00,46.2,45.7,29.81,SSW,202,3.7,-999.0,98,-99.99,,,0.00,Acu-Link.com,2013-03-19 11:42:00,
2013-03-19 07:57:00,45.3,44.8,29.81,SW,225,2.2,-999.0,98,-99.99,,,0.00,Acu-Link.com,2013-03-19 11:57:00,
2013-03-19 08:12:00,44.6,44.1,29.82,SW,225,2.2,-999.0,98,-99.99,,,0.00,Acu-Link.com,2013-03-19 12:12:00,
2013-03-19 08:28:00,44.4,43.9,29.81,WNW,292,1.1,-999.0,98,-99.99,,,0.00,Acu-Link.com,2013-03-19 12:28:00,
2013-03-19 08:43:00,44.2,43.7,29.82,SW,225,1.1,-999.0,98,-99.99,,,0.00,Acu-Link.com,2013-03-19 12:43:00,
2013-03-19 08:58:00,45.5,45.0,29.83,SW,225,1.1,-999.0,98,-99.99,,,0.00,Acu-Link.com,2013-03-19 12:58:00,
2013-03-19 09:14:00,46.8,46.3,29.84,WSW,247,1.1,-999.0,98,-99.99,,,0.00,Acu-Link.com,2013-03-19 13:14:00,
2013-03-19 09:29:00,48.4,47.9,29.84,SSW,202,1.7,-999.0,98,-99.99,,,0.00,Acu-Link.com,2013-03-19 13:29:00,
2013-03-19 09:44:00,49.8,49.3,29.83,ESE,112,0.0,-999.0,98,-99.99,,,0.00,Acu-Link.com,2013-03-19 13:44:00,
2013-03-19 09:59:00,50.2,49.7,29.84,SSW,202,1.1,-999.0,98,-99.99,,,0.00,Acu-Link.com,2013-03-19 13:59:00,
2013-03-19 10:14:00,51.1,50.6,29.84,South,180,0.0,-999.0,98,-99.99,,,0.00,Acu-Link.com,2013-03-19 14:14:00,
2013-03-19 10:30:00,52.0,50.9,29.84,NNW,337,3.2,-999.0,96,-99.99,,,0.00,Acu-Link.com,2013-03-19 14:30:00,
2013-03-19 10:45:00,51.8,48.1,29.85,SW,225,1.7,-999.0,87,-99.99,,,0.00,Acu-Link.com,2013-03-19 14:45:00,
2013-03-19 11:01:00,52.9,48.5,29.85,North,0,1.1,-999.0,85,-99.99,,,0.00,Acu-Link.com,2013-03-19 15:01:00,
2013-03-19 11:31:00,53.2,45.5,29.86,West,270,2.2,-999.0,75,-99.99,,,0.00,Acu-Link.com,2013-03-19 15:31:00,
2013-03-19 12:01:00,53.6,43.7,29.86,SSW,202,2.7,-999.0,69,-99.99,,,0.00,Acu-Link.com,2013-03-19 16:01:00,
2013-03-19 12:17:00,54.9,43.0,29.86,SSW,202,2.7,-999.0,64,-99.99,,,0.00,Acu-Link.com,2013-03-19 16:17:00,
2013-03-19 12:32:00,55.4,41.7,29.86,West,270,2.2,-999.0,60,-99.99,,,0.00,Acu-Link.com,2013-03-19 16:32:00,
2013-03-19 12:47:00,55.2,41.6,29.86,NW,315,1.7,-999.0,60,-99.99,,,0.00,Acu-Link.com,2013-03-19 16:47:00,
2013-03-19 13:03:00,55.9,48.4,29.86,NW,315,2.2,-999.0,76,-99.99,,,0.00,Acu-Link.com,2013-03-19 17:03:00,
2013-03-19 13:18:00,56.5,51.4,29.86,ESE,112,3.2,-999.0,83,-99.99,,,0.00,Acu-Link.com,2013-03-19 17:18:00,
2013-03-19 13:33:00,55.8,49.7,29.86,West,270,0.0,-999.0,80,-99.99,,,0.00,Acu-Link.com,2013-03-19 17:33:00,
2013-03-19 13:50:00,56.1,51.7,29.87,SSW,202,1.7,-999.0,85,-99.99,,,0.00,Acu-Link.com,2013-03-19 17:50:00,
2013-03-19 14:05:00,56.1,45.3,29.86,WSW,247,2.7,-999.0,67,-99.99,,,0.00,Acu-Link.com,2013-03-19 18:05:00,
2013-03-19 14:20:00,57.0,51.9,29.85,SW,225,2.7,-999.0,83,-99.99,,,0.00,Acu-Link.com,2013-03-19 18:20:00,
2013-03-19 14:35:00,58.1,54.6,29.85,SSW,202,2.7,-999.0,88,-99.99,,,0.00,Acu-Link.com,2013-03-19 18:35:00,
2013-03-19 14:51:00,58.6,52.1,29.84,SSW,202,1.7,-999.0,79,-99.99,,,0.00,Acu-Link.com,2013-03-19 18:51:00,
2013-03-19 15:22:00,58.6,52.1,29.84,SW,225,1.7,-999.0,79,-99.99,,,0.00,Acu-Link.com,2013-03-19 19:22:00,
2013-03-19 15:37:00,55.2,41.6,29.85,SSW,202,2.7,-999.0,60,-99.99,,,0.00,Acu-Link.com,2013-03-19 19:37:00,
2013-03-19 15:52:00,55.2,40.7,29.85,South,180,2.7,-999.0,58,-99.99,,,0.00,Acu-Link.com,2013-03-19 19:52:00,
2013-03-19 16:07:00,58.6,49.2,29.85,ESE,112,2.2,-999.0,71,-99.99,,,0.00,Acu-Link.com,2013-03-19 20:07:00,
2013-03-19 16:22:00,58.3,45.8,29.86,South,180,3.2,-999.0,63,-99.99,,,0.00,Acu-Link.com,2013-03-19 20:22:00,
2013-03-19 16:41:00,58.8,48.7,29.86,SW,225,1.7,-999.0,69,-99.99,,,0.00,Acu-Link.com,2013-03-19 20:41:00,
2013-03-19 16:58:00,59.4,52.9,29.86,WSW,247,2.2,-999.0,79,-99.99,,,0.00,Acu-Link.com,2013-03-19 20:58:00,
2013-03-19 17:13:00,55.4,40.4,29.85,SE,135,4.2,-999.0,57,-99.99,,,0.00,Acu-Link.com,2013-03-19 21:13:00,
2013-03-19 17:28:00,54.7,39.8,29.85,WSW,247,2.2,-999.0,57,-99.99,,,0.00,Acu-Link.com,2013-03-19 21:28:00,
2013-03-19 17:43:00,53.8,39.4,29.85,SW,225,2.2,-999.0,58,-99.99,,,0.00,Acu-Link.com,2013-03-19 21:43:00,
2013-03-19 18:00:00,53.1,38.7,29.85,West,270,5.3,-999.0,58,-99.99,,,0.00,Acu-Link.com,2013-03-19 22:00:00,
2013-03-19 18:32:00,50.5,31.6,29.86,SW,225,4.2,-999.0,48,-99.99,,,0.00,Acu-Link.com,2013-03-19 22:32:00,
2013-03-19 18:48:00,52.3,35.2,29.86,SE,135,2.2,-999.0,52,-99.99,,,0.00,Acu-Link.com,2013-03-19 22:48:00,
2013-03-19 19:03:00,51.8,37.1,29.86,West,270,2.2,-999.0,57,-99.99,,,0.00,Acu-Link.com,2013-03-19 23:03:00,
2013-03-19 19:19:00,50.7,33.2,29.87,West,270,2.7,-999.0,51,-99.99,,,0.00,Acu-Link.com,2013-03-19 23:19:00,
2013-03-19 19:53:00,49.6,30.7,29.88,West,270,0.0,-999.0,48,-99.99,,,0.00,Acu-Link.com,2013-03-19 23:53:00,
2013-03-19 20:08:00,48.0,36.8,29.89,South,180,1.7,-999.0,65,-99.99,,,0.00,Acu-Link.com,2013-03-20 00:08:00,
2013-03-19 20:27:00,47.1,37.5,29.89,WSW,247,1.1,-999.0,69,-99.99,,,0.00,Acu-Link.com,2013-03-20 00:27:00,
2013-03-19 20:42:00,44.8,30.5,29.88,NNE,22,1.7,-999.0,57,-99.99,,,0.00,Acu-Link.com,2013-03-20 00:42:00,
2013-03-19 20:57:00,43.7,30.7,29.89,NE,45,1.7,-999.0,60,-99.99,,,0.00,Acu-Link.com,2013-03-20 00:57:00,
2013-03-19 21:13:00,43.0,31.3,29.89,NE,45,2.2,-999.0,63,-99.99,,,0.00,Acu-Link.com,2013-03-20 01:13:00,
2013-03-19 21:32:00,41.7,33.4,29.90,NE,45,1.7,-999.0,72,-99.99,,,0.00,Acu-Link.com,2013-03-20 01:32:00,
2013-03-19 21:48:00,41.0,33.4,29.90,East,90,0.0,-999.0,74,-99.99,,,0.00,Acu-Link.com,2013-03-20 01:48:00,
2013-03-19 22:22:00,39.7,32.8,29.91,East,90,0.0,-999.0,76,-99.99,,,0.00,Acu-Link.com,2013-03-20 02:22:00,
2013-03-19 22:37:00,39.4,32.8,29.91,East,90,0.0,-999.0,77,-99.99,,,0.00,Acu-Link.com,2013-03-20 02:37:00,
2013-03-19 22:52:00,38.8,31.6,29.91,South,180,0.0,-999.0,75,-99.99,,,0.00,Acu-Link.com,2013-03-20 02:52:00,
2013-03-19 23:09:00,38.5,32.6,29.92,NE,45,0.0,-999.0,79,-99.99,,,0.00,Acu-Link.com,2013-03-20 03:09:00,
2013-03-19 23:24:00,37.8,31.2,29.92,NE,45,0.0,-999.0,77,-99.99,,,0.00,Acu-Link.com,2013-03-20 03:24:00,
2013-03-19 23:43:00,37.4,31.8,29.92,NE,45,0.0,-999.0,80,-99.99,,,0.00,Acu-Link.com,2013-03-20 03:43:00,
2013-03-19 23:58:00,36.7,29.9,29.93,NNE,22,2.2,-999.0,76,-99.99,,,0.00,Acu-Link.com,2013-03-20 03:58:00,